createdAt,value
2022-11-02T00:13:39.940Z,84.73
2022-11-02T00:21:00.742Z,84.87
2022-11-02T00:50:24.570Z,85.57
2022-11-02T00:55:45.977Z,85.74
2022-11-02T01:01:08.217Z,85.83
2022-11-02T01:06:32.269Z,86.05
2022-11-02T01:11:54.057Z,85.94
2022-11-02T01:17:16.271Z,86.07
2022-11-02T01:22:38.159Z,86.09
2022-11-02T01:28:00.020Z,86.09
2022-11-02T01:33:23.222Z,86.19
2022-11-02T01:39:42.853Z,86.32
2022-11-02T01:45:17.053Z,86.29
2022-11-02T01:51:18.555Z,86.53
2022-11-02T02:03:57.524Z,86.20
2022-11-02T02:09:37.383Z,86.27
2022-11-02T02:15:25.756Z,86.34
2022-11-02T02:22:06.891Z,86.19
2022-11-02T03:35:03.509Z,87.29
2022-11-02T03:40:58.929Z,87.31
2022-11-02T03:46:49.689Z,87.05
2022-11-02T04:01:54.406Z,86.77
2022-11-02T04:31:02.375Z,86.21
2022-11-02T04:36:44.083Z,86.29
2022-11-02T04:42:11.095Z,86.33
2022-11-02T04:48:16.721Z,86.36
2022-11-02T04:54:30.287Z,86.25
2022-11-02T05:00:08.387Z,86.46
2022-11-02T05:05:57.539Z,86.34
2022-11-02T05:11:52.816Z,86.43
2022-11-02T05:18:18.616Z,86.81
2022-11-02T05:23:57.043Z,87.07
2022-11-02T05:36:48.421Z,87.66
2022-11-02T05:42:17.673Z,87.66
2022-11-02T05:56:04.425Z,87.95
2022-11-02T06:16:23.644Z,87.27
2022-11-02T06:22:41.463Z,86.93
2022-11-02T06:35:49.357Z,86.77
2022-11-02T06:41:39.552Z,86.37
2022-11-02T06:47:53.085Z,85.85
2022-11-02T06:53:45.523Z,85.72
2022-11-02T06:59:06.487Z,85.68
2022-11-02T07:04:27.548Z,85.40
2022-11-02T07:09:48.252Z,85.36
2022-11-02T07:15:09.429Z,85.55
2022-11-02T07:20:51.111Z,85.27
2022-11-02T07:27:08.408Z,85.35
2022-11-02T07:32:38.085Z,85.57
2022-11-02T07:38:02.430Z,85.27
2022-11-02T07:43:23.530Z,84.52
2022-11-02T07:49:05.385Z,84.40
2022-11-02T07:54:26.694Z,84.22
2022-11-02T07:59:47.822Z,83.92
2022-11-02T08:05:08.661Z,83.78
2022-11-02T08:10:35.503Z,83.40
2022-11-02T08:16:02.262Z,82.90
2022-11-02T08:21:32.610Z,82.91
2022-11-02T08:26:54.877Z,82.17
2022-11-02T08:32:15.809Z,81.71
2022-11-02T08:51:36.663Z,81.27
2022-11-02T08:57:37.384Z,81.00
2022-11-02T09:03:25.972Z,80.27
2022-11-02T09:09:10.685Z,80.77
2022-11-02T09:15:08.177Z,79.75
2022-11-02T09:20:53.831Z,79.54
2022-11-02T09:26:35.808Z,79.79
2022-11-02T09:32:42.070Z,79.83
2022-11-02T09:38:23.649Z,79.98
2022-11-02T09:44:01.266Z,79.68
2022-11-02T09:49:25.231Z,79.07
2022-11-02T09:54:50.423Z,77.69
2022-11-02T10:00:17.917Z,76.56
2022-11-02T10:05:47.656Z,76.28
2022-11-02T10:11:25.687Z,74.93
2022-11-02T10:17:35.387Z,73.33
2022-11-02T10:23:03.965Z,71.93
2022-11-02T10:28:34.338Z,70.63
2022-11-02T10:33:58.278Z,70.41
2022-11-02T10:39:30.399Z,69.14
2022-11-02T10:45:02.079Z,68.15
2022-11-02T10:50:58.623Z,67.34
2022-11-02T10:56:21.184Z,68.04
2022-11-02T11:02:02.635Z,66.86
2022-11-02T11:07:27.227Z,65.01
2022-11-02T11:12:47.845Z,63.25
2022-11-02T11:24:18.421Z,62.72
2022-11-02T11:29:45.395Z,61.57
2022-11-02T11:35:17.858Z,61.49
2022-11-02T11:40:43.310Z,61.16
2022-11-02T11:46:07.254Z,60.68
2022-11-02T11:51:33.755Z,60.46
2022-11-02T11:56:59.654Z,60.02
2022-11-02T12:02:27.776Z,59.88
2022-11-02T12:08:29.054Z,58.94
2022-11-02T12:14:02.931Z,58.16
2022-11-02T12:19:33.828Z,58.48
2022-11-02T12:25:33.174Z,58.31
2022-11-02T12:31:27.050Z,56.43
2022-11-02T12:43:13.588Z,53.70
2022-11-02T12:48:50.532Z,54.25
2022-11-02T12:54:19.755Z,53.73
2022-11-02T12:59:43.685Z,54.41
2022-11-02T13:05:20.863Z,54.19
2022-11-02T13:10:53.465Z,54.43
2022-11-02T13:16:17.380Z,55.03
2022-11-02T13:21:44.298Z,54.67
2022-11-02T13:27:34.891Z,54.35
2022-11-02T13:33:03.115Z,54.93
2022-11-02T13:38:32.108Z,56.31
2022-11-02T13:44:22.527Z,56.91
2022-11-02T13:49:49.393Z,57.46
2022-11-02T13:55:18.463Z,56.97
2022-11-02T14:00:45.607Z,56.40
2022-11-02T14:06:15.147Z,56.78
2022-11-02T14:11:47.914Z,56.92
2022-11-02T14:17:28.771Z,57.12
2022-11-02T14:23:14.419Z,56.89
2022-11-02T14:28:42.784Z,57.06
2022-11-02T14:34:26.147Z,58.47
2022-11-02T14:39:52.338Z,59.64
2022-11-02T14:45:48.266Z,60.18
2022-11-02T14:51:35.498Z,60.91
2022-11-02T14:57:18.444Z,61.61
2022-11-02T15:02:43.070Z,62.06
2022-11-02T15:08:21.787Z,62.43
2022-11-02T15:13:47.360Z,63.15
2022-11-02T15:19:49.168Z,63.69
2022-11-02T15:25:11.016Z,63.98
2022-11-02T15:30:32.658Z,64.22
2022-11-02T15:35:54.911Z,64.66
2022-11-02T15:41:44.548Z,65.17
2022-11-02T15:47:43.884Z,65.59
2022-11-02T15:53:24.332Z,65.98
2022-11-02T15:59:07.097Z,66.41
2022-11-02T16:04:27.524Z,66.35
2022-11-02T16:09:48.464Z,66.12
2022-11-02T16:15:18.290Z,65.91
2022-11-02T16:20:39.761Z,65.46
2022-11-02T16:26:28.019Z,65.13
2022-11-02T16:32:50.571Z,64.87
2022-11-02T16:39:35.014Z,64.60
2022-11-02T16:45:34.877Z,64.78
2022-11-02T16:51:06.362Z,64.46
2022-11-02T16:56:31.919Z,64.37
2022-11-02T17:01:59.889Z,64.46
2022-11-02T17:07:30.256Z,64.39
2022-11-02T17:12:52.045Z,64.60
2022-11-02T17:19:15.900Z,64.66
2022-11-02T17:26:07.719Z,64.81
2022-11-02T17:32:48.993Z,65.00
2022-11-02T17:39:15.545Z,65.17
2022-11-02T17:46:01.614Z,65.37
2022-11-02T17:51:42.795Z,65.72
2022-11-02T17:57:15.091Z,65.92
2022-11-02T18:02:36.174Z,66.11
2022-11-02T18:08:57.057Z,66.04
2022-11-02T18:15:39.208Z,66.12
2022-11-02T18:21:53.592Z,66.14
2022-11-02T18:27:40.630Z,66.32
2022-11-02T18:34:03.773Z,66.43
2022-11-02T18:40:32.792Z,66.63
2022-11-02T18:47:16.590Z,66.83
2022-11-02T18:53:50.635Z,66.95
2022-11-02T19:00:14.869Z,67.10
2022-11-02T19:06:58.332Z,67.11
2022-11-02T19:13:25.094Z,67.21
2022-11-02T19:18:52.208Z,67.36
2022-11-02T19:25:17.324Z,67.30
2022-11-02T19:32:01.257Z,67.26
2022-11-02T19:38:46.362Z,67.64
2022-11-02T19:45:30.774Z,67.80
2022-11-02T19:52:14.059Z,67.81
2022-11-02T19:58:56.227Z,67.91
2022-11-02T20:04:42.332Z,68.13
2022-11-02T20:10:05.355Z,68.32
2022-11-02T20:16:28.481Z,68.27
2022-11-02T20:23:11.321Z,68.69
2022-11-02T20:29:56.531Z,68.91
2022-11-02T20:36:38.102Z,69.07
2022-11-02T20:43:22.828Z,69.31
2022-11-02T20:50:08.086Z,69.51
2022-11-02T20:56:50.832Z,69.85
2022-11-02T21:03:32.945Z,69.93
2022-11-02T21:10:16.377Z,70.16
2022-11-02T21:17:00.431Z,70.04
2022-11-02T21:22:38.858Z,70.30
2022-11-02T21:28:00.572Z,70.49
2022-11-02T21:33:21.450Z,70.69
2022-11-02T21:38:44.525Z,70.70
2022-11-02T21:44:45.861Z,70.83
2022-11-02T21:50:29.717Z,71.44
2022-11-02T21:56:41.135Z,71.42
2022-11-02T22:02:02.807Z,71.60
2022-11-02T22:07:23.736Z,71.62
2022-11-02T22:13:03.320Z,71.60
2022-11-02T22:18:24.130Z,71.86
2022-11-02T22:23:46.706Z,71.65
2022-11-02T22:29:07.722Z,71.75
2022-11-02T22:34:28.138Z,72.15
2022-11-02T22:39:48.691Z,72.62
2022-11-02T22:45:10.000Z,72.79
2022-11-02T22:50:30.516Z,72.90
2022-11-02T22:56:12.782Z,72.87
2022-11-02T23:01:36.067Z,72.80
2022-11-02T23:06:57.257Z,72.91
2022-11-02T23:12:17.494Z,73.14
2022-11-02T23:17:38.384Z,73.40
2022-11-02T23:23:17.644Z,73.81
2022-11-02T23:28:59.040Z,73.87
2022-11-02T23:34:20.019Z,73.95
2022-11-02T23:40:47.743Z,73.88
2022-11-02T23:47:39.221Z,74.61
2022-11-02T23:54:02.140Z,75.02
